createdAt,value
2018-04-23T00:02:11.961Z,15.30
2018-04-23T00:04:40.246Z,16.07
2018-04-23T00:07:08.552Z,15.03
2018-04-23T00:09:36.834Z,16.00
2018-04-23T00:12:05.118Z,17.67
2018-04-23T00:14:33.487Z,16.30
2018-04-23T00:17:02.686Z,14.03
2018-04-23T00:19:30.998Z,14.77
2018-04-23T00:21:59.277Z,15.10
2018-04-23T00:24:27.583Z,16.07
2018-04-23T00:26:56.066Z,15.57
2018-04-23T00:29:24.406Z,16.37
2018-04-23T00:31:52.661Z,16.60
2018-04-23T00:34:20.966Z,17.30
2018-04-23T00:36:49.282Z,16.60
2018-04-23T00:39:17.565Z,18.33
2018-04-23T00:41:45.886Z,18.30
2018-04-23T00:44:14.139Z,22.43
2018-04-23T00:46:43.213Z,19.40
2018-04-23T00:49:11.491Z,20.67
2018-04-23T00:51:39.781Z,22.00
2018-04-23T00:54:08.070Z,18.33
2018-04-23T00:56:37.155Z,20.50
2018-04-23T00:59:05.460Z,20.80
2018-04-23T01:01:33.713Z,21.43
2018-04-23T01:04:02.015Z,21.60
2018-04-23T01:06:31.058Z,22.97
2018-04-23T01:08:59.389Z,23.20
2018-04-23T01:11:27.696Z,22.77
2018-04-23T01:13:56.183Z,23.03
2018-04-23T01:16:24.461Z,25.40
2018-04-23T01:18:52.737Z,24.40
2018-04-23T01:21:21.039Z,23.63
2018-04-23T01:23:49.315Z,23.77
2018-04-23T01:26:17.634Z,23.27
2018-04-23T01:28:46.667Z,22.90
2018-04-23T01:31:14.950Z,26.30
2018-04-23T01:33:43.240Z,23.90
2018-04-23T01:36:11.585Z,24.47
2018-04-23T01:38:39.902Z,24.93
2018-04-23T01:41:08.180Z,24.00
2018-04-23T01:43:36.495Z,25.13
2018-04-23T01:46:05.551Z,26.13
2018-04-23T01:48:33.838Z,26.87
2018-04-23T01:51:02.101Z,26.83
2018-04-23T01:53:30.459Z,25.07
2018-04-23T01:55:58.756Z,24.33
2018-04-23T01:58:27.074Z,26.93
2018-04-23T02:00:56.551Z,26.80
2018-04-23T02:03:24.831Z,25.90
2018-04-23T02:05:53.141Z,25.50
2018-04-23T02:08:21.417Z,27.10
2018-04-23T02:10:49.694Z,28.77
2018-04-23T02:13:18.003Z,26.10
2018-04-23T02:15:46.381Z,27.10
2018-04-23T02:18:14.693Z,27.43
2018-04-23T02:20:42.997Z,30.40
2018-04-23T02:23:11.290Z,27.87
2018-04-23T02:25:40.337Z,25.40
2018-04-23T02:28:08.648Z,27.40
2018-04-23T02:30:36.930Z,26.53
2018-04-23T02:33:05.202Z,28.33
2018-04-23T02:35:33.489Z,27.37
2018-04-23T02:38:02.576Z,28.30
2018-04-23T02:40:30.944Z,29.33
2018-04-23T02:43:00.025Z,28.47
2018-04-23T02:45:28.343Z,29.50
2018-04-23T02:47:57.404Z,28.40
2018-04-23T02:50:25.742Z,29.37
2018-04-23T02:52:54.022Z,30.70
2018-04-23T02:55:22.358Z,29.70
2018-04-23T02:57:50.634Z,28.17
2018-04-23T03:00:18.950Z,28.30
2018-04-23T03:02:48.007Z,27.67
2018-04-23T03:05:16.281Z,28.00
2018-04-23T03:07:44.571Z,27.87
2018-04-23T03:10:12.925Z,28.00
2018-04-23T03:12:41.296Z,27.63
2018-04-23T03:15:09.556Z,30.13
2018-04-23T03:17:37.873Z,28.33
2018-04-23T03:20:06.149Z,29.00
2018-04-23T03:22:34.446Z,28.63
2018-04-23T03:25:02.789Z,32.83
2018-04-23T03:27:31.043Z,27.77
2018-04-23T03:29:59.341Z,31.13
2018-04-23T03:32:27.593Z,29.70
2018-04-23T03:34:55.902Z,30.80
2018-04-23T03:37:24.173Z,28.57
2018-04-23T03:39:52.427Z,24.77
2018-04-23T03:42:20.744Z,26.63
2018-04-23T03:44:49.015Z,25.70
2018-04-23T03:47:17.306Z,24.90
2018-04-23T03:49:46.632Z,26.10
2018-04-23T03:52:14.934Z,26.40
2018-04-23T03:54:43.215Z,25.70
2018-04-23T03:57:11.531Z,27.97
2018-04-23T03:59:41.742Z,27.60
2018-04-23T04:02:10.008Z,27.97
2018-04-23T04:04:38.335Z,28.13
2018-04-23T04:07:06.635Z,27.27
2018-04-23T04:09:35.725Z,28.30
2018-04-23T04:12:15.915Z,28.77
2018-04-23T04:14:56.050Z,28.63
2018-04-23T04:20:38.466Z,26.90
2018-04-23T04:23:06.749Z,26.70
2018-04-23T04:25:35.820Z,23.63
2018-04-23T04:28:04.081Z,25.30
2018-04-23T04:30:32.391Z,24.50
2018-04-23T04:33:00.667Z,25.67
2018-04-23T04:35:30.473Z,26.77
2018-04-23T04:37:58.757Z,25.90
2018-04-23T04:40:27.032Z,25.23
2018-04-23T04:42:55.391Z,24.27
2018-04-23T04:45:23.662Z,27.07
2018-04-23T04:47:51.978Z,25.53
2018-04-23T04:50:21.015Z,22.97
2018-04-23T04:52:49.354Z,25.47
2018-04-23T04:55:17.634Z,24.83
2018-04-23T04:57:45.927Z,27.37
2018-04-23T05:00:14.258Z,23.00
2018-04-23T05:02:42.548Z,20.90
2018-04-23T05:05:10.851Z,22.13
2018-04-23T05:07:39.128Z,21.47
2018-04-23T05:10:08.180Z,21.73
2018-04-23T05:12:36.483Z,22.27
2018-04-23T05:15:04.780Z,21.93
2018-04-23T05:17:33.834Z,24.57
2018-04-23T05:20:02.126Z,20.63
2018-04-23T05:22:30.485Z,20.97
2018-04-23T05:25:02.053Z,18.80
2018-04-23T05:27:30.369Z,23.00
2018-04-23T05:29:58.666Z,18.77
2018-04-23T05:32:26.955Z,20.43
2018-04-23T05:34:55.229Z,19.10
2018-04-23T05:37:23.503Z,18.47
2018-04-23T05:39:51.796Z,20.17
2018-04-23T05:42:20.063Z,18.30
2018-04-23T05:44:48.378Z,18.07
2018-04-23T05:47:16.652Z,20.93
2018-04-23T05:49:44.958Z,21.33
2018-04-23T05:52:13.265Z,18.63
2018-04-23T05:54:42.307Z,18.57
2018-04-23T05:57:10.609Z,18.87
2018-04-23T05:59:38.874Z,18.13
2018-04-23T06:02:07.202Z,17.30
2018-04-23T06:04:35.475Z,15.70
2018-04-23T06:07:03.834Z,14.70
2018-04-23T06:09:32.153Z,14.87
2018-04-23T06:12:00.446Z,14.40
2018-04-23T06:14:28.831Z,14.33
2018-04-23T06:16:58.019Z,13.70
2018-04-23T06:19:26.335Z,14.57
2018-04-23T06:21:54.639Z,13.33
2018-04-23T06:24:24.424Z,12.03
2018-04-23T06:26:52.744Z,10.47
2018-04-23T06:29:21.029Z,11.93
2018-04-23T06:31:49.357Z,11.00
2018-04-23T06:34:17.634Z,10.97
2018-04-23T06:36:45.931Z,10.97
2018-04-23T06:39:14.970Z,12.03
2018-04-23T06:41:43.272Z,11.47
2018-04-23T06:44:11.564Z,11.80
2018-04-23T06:46:39.907Z,12.93
2018-04-23T06:49:08.221Z,10.63
2018-04-23T06:51:36.517Z,10.47
2018-04-23T06:54:04.866Z,12.37
2018-04-23T06:56:33.173Z,10.47
2018-04-23T06:59:01.566Z,11.60
2018-04-23T07:01:29.908Z,9.70
2018-04-23T07:03:58.259Z,9.53
2018-04-23T07:06:27.384Z,10.20
2018-04-23T07:08:55.646Z,10.20
2018-04-23T07:11:23.974Z,9.87
2018-04-23T07:13:52.271Z,9.07
2018-04-23T07:16:20.597Z,9.90
2018-04-23T07:18:48.892Z,8.73
2018-04-23T07:21:17.211Z,9.10
2018-04-23T07:23:45.517Z,9.13
2018-04-23T07:26:13.826Z,10.17
2018-04-23T07:28:42.103Z,9.73
2018-04-23T07:31:10.437Z,8.47
2018-04-23T07:33:39.183Z,8.37
2018-04-23T07:36:07.540Z,7.60
2018-04-23T07:38:36.045Z,7.90
2018-04-23T07:41:04.308Z,8.30
2018-04-23T07:43:32.595Z,8.03
2018-04-23T07:46:01.691Z,9.30
2018-04-23T07:48:29.974Z,7.87
2018-04-23T07:50:59.051Z,7.90
2018-04-23T07:53:27.320Z,8.63
2018-04-23T07:55:55.607Z,9.10
2018-04-23T07:58:23.871Z,10.40
2018-04-23T08:00:52.187Z,9.57
2018-04-23T08:03:21.248Z,8.93
2018-04-23T08:05:49.538Z,8.90
2018-04-23T08:08:17.830Z,9.50
2018-04-23T08:10:46.142Z,9.10
2018-04-23T08:13:14.435Z,9.53
2018-04-23T08:15:42.704Z,9.40
2018-04-23T08:18:11.026Z,9.20
2018-04-23T08:20:39.329Z,9.47
2018-04-23T08:23:08.398Z,9.00
2018-04-23T08:25:36.681Z,8.80
2018-04-23T08:28:05.031Z,8.87
2018-04-23T08:30:33.314Z,12.37
2018-04-23T08:33:01.652Z,9.33
2018-04-23T08:35:29.926Z,9.53
2018-04-23T08:37:58.226Z,9.50
2018-04-23T08:40:27.875Z,11.27
2018-04-23T08:42:56.156Z,10.20
2018-04-23T08:45:24.482Z,10.07
2018-04-23T08:47:52.817Z,9.90
2018-04-23T08:50:21.118Z,9.27
2018-04-23T08:52:49.397Z,10.97
2018-04-23T08:55:17.683Z,10.70
2018-04-23T08:57:46.750Z,11.20
2018-04-23T09:00:15.068Z,10.40
2018-04-23T09:02:43.362Z,11.80
2018-04-23T09:05:11.639Z,10.83
2018-04-23T09:07:39.939Z,10.13
2018-04-23T09:10:08.229Z,11.40
2018-04-23T09:12:37.331Z,10.90
2018-04-23T09:15:05.646Z,11.40
2018-04-23T09:17:34.693Z,10.33
2018-04-23T09:20:03.118Z,10.63
2018-04-23T09:22:31.394Z,10.60
2018-04-23T09:25:00.499Z,10.60
2018-04-23T09:27:29.567Z,10.83
2018-04-23T09:29:57.858Z,11.80
2018-04-23T09:32:26.188Z,9.77
2018-04-23T09:34:54.481Z,12.07
2018-04-23T09:37:22.773Z,11.53
2018-04-23T09:39:51.061Z,10.20
2018-04-23T09:42:19.369Z,9.60
2018-04-23T09:44:48.429Z,10.60
2018-04-23T09:47:16.737Z,11.43
2018-04-23T09:49:45.803Z,11.13
2018-04-23T09:52:14.106Z,10.87
2018-04-23T09:54:43.151Z,10.63
2018-04-23T09:57:11.498Z,10.90
2018-04-23T09:59:40.577Z,11.40
2018-04-23T10:02:09.647Z,11.33
2018-04-23T10:04:37.954Z,10.80
2018-04-23T10:07:06.997Z,11.03
2018-04-23T10:09:35.297Z,10.33
2018-04-23T10:12:03.570Z,10.30
2018-04-23T10:14:31.895Z,10.23
2018-04-23T10:17:00.941Z,9.93
2018-04-23T10:19:29.247Z,10.13
2018-04-23T10:21:57.538Z,10.97
2018-04-23T10:24:25.843Z,11.17
2018-04-23T10:26:54.157Z,9.87
2018-04-23T10:29:22.610Z,10.13
2018-04-23T10:31:50.912Z,9.97
2018-04-23T10:34:19.194Z,9.77
2018-04-23T10:36:47.497Z,8.70
2018-04-23T10:39:15.794Z,10.33
2018-04-23T10:41:44.848Z,8.80
2018-04-23T10:44:13.119Z,10.50
2018-04-23T10:46:41.417Z,8.80
2018-04-23T10:49:09.693Z,8.30
2018-04-23T10:51:37.983Z,8.80
2018-04-23T10:54:06.302Z,9.30
2018-04-23T10:56:34.590Z,8.37
2018-04-23T10:59:02.940Z,10.27
2018-04-23T11:01:31.976Z,9.80
2018-04-23T11:04:00.312Z,9.40
2018-04-23T11:06:28.589Z,9.00
2018-04-23T11:08:57.671Z,9.70
2018-04-23T11:11:26.090Z,12.20
2018-04-23T11:13:54.370Z,10.03
2018-04-23T11:16:22.657Z,10.03
2018-04-23T11:18:50.935Z,11.30
2018-04-23T11:21:19.245Z,9.90
2018-04-23T11:23:47.528Z,11.77
2018-04-23T11:26:15.819Z,9.60
2018-04-23T11:28:44.105Z,10.27
2018-04-23T11:31:13.172Z,11.47
2018-04-23T11:33:42.215Z,10.40
2018-04-23T11:36:11.342Z,9.17
2018-04-23T11:38:39.620Z,11.00
2018-04-23T11:41:07.893Z,9.77
2018-04-23T11:43:36.185Z,10.67
2018-04-23T11:46:04.500Z,8.27
2018-04-23T11:48:32.797Z,9.40
2018-04-23T11:51:01.054Z,9.10
2018-04-23T11:53:29.350Z,8.87
2018-04-23T11:55:57.666Z,9.07
2018-04-23T11:58:26.005Z,9.27
2018-04-23T12:00:55.089Z,9.80
2018-04-23T12:03:23.378Z,9.57
2018-04-23T12:05:52.482Z,11.07
2018-04-23T12:08:21.548Z,8.63
2018-04-23T12:10:49.869Z,9.57
2018-04-23T12:13:18.133Z,9.07
2018-04-23T12:15:46.450Z,10.23
2018-04-23T12:18:14.757Z,8.93
2018-04-23T12:20:43.146Z,8.40
2018-04-23T12:23:11.410Z,8.30
2018-04-23T12:25:39.678Z,7.23
2018-04-23T12:28:08.075Z,7.63
2018-04-23T12:30:36.328Z,8.50
2018-04-23T12:33:04.796Z,7.60
2018-04-23T12:35:33.375Z,7.93
2018-04-23T12:38:02.669Z,8.23
2018-04-23T12:40:31.240Z,6.43
2018-04-23T12:42:59.705Z,7.23
2018-04-23T12:45:28.080Z,7.70
2018-04-23T12:47:57.440Z,8.30
2018-04-23T12:50:26.042Z,8.87
2018-04-23T12:52:56.185Z,8.07
2018-04-23T12:55:24.615Z,7.93
2018-04-23T12:57:53.022Z,7.40
2018-04-23T13:00:21.625Z,8.17
2018-04-23T13:02:50.892Z,8.10
2018-04-23T13:05:19.312Z,7.97
2018-04-23T13:07:47.765Z,9.30
2018-04-23T13:10:16.455Z,9.70
2018-04-23T13:12:45.400Z,8.50
2018-04-23T13:15:13.704Z,8.03
2018-04-23T13:17:42.564Z,7.70
2018-04-23T13:20:14.552Z,8.43
2018-04-23T13:22:46.361Z,9.20
2018-04-23T13:25:17.375Z,7.60
2018-04-23T13:27:50.561Z,7.67
2018-04-23T13:30:20.315Z,7.87
2018-04-23T13:32:49.267Z,9.40
2018-04-23T13:35:18.711Z,8.10
2018-04-23T13:37:47.190Z,7.00
2018-04-23T13:40:16.510Z,8.27
2018-04-23T13:42:44.936Z,7.20
2018-04-23T13:45:15.122Z,6.90
2018-04-23T13:47:43.837Z,8.53
2018-04-23T13:50:12.385Z,7.77
2018-04-23T13:52:43.292Z,8.00
2018-04-23T13:55:12.088Z,8.17
2018-04-23T13:57:40.698Z,7.23
2018-04-23T14:00:11.457Z,7.87
2018-04-23T14:02:40.113Z,7.43
2018-04-23T14:05:08.559Z,9.00
2018-04-23T14:07:36.988Z,8.30
2018-04-23T14:10:05.575Z,8.10
2018-04-23T14:12:37.449Z,7.97
2018-04-23T14:15:05.905Z,7.70
2018-04-23T14:17:36.070Z,8.03
2018-04-23T14:20:05.701Z,8.13
2018-04-23T14:22:36.946Z,8.23
2018-04-23T14:25:05.697Z,8.33
2018-04-23T14:27:35.031Z,9.23
2018-04-23T14:30:03.461Z,7.60
2018-04-23T14:32:31.872Z,7.73
2018-04-23T14:35:01.063Z,6.90
2018-04-23T14:37:31.107Z,6.97
2018-04-23T14:40:00.119Z,8.07
2018-04-23T14:42:29.733Z,8.53
2018-04-23T14:44:58.068Z,8.80
2018-04-23T14:47:26.376Z,7.17
2018-04-23T14:49:59.310Z,8.00
2018-04-23T14:52:28.581Z,8.20
2018-04-23T14:54:57.018Z,9.10
2018-04-23T14:57:27.515Z,8.20
2018-04-23T14:59:58.541Z,7.90
2018-04-23T15:02:27.001Z,8.40
2018-04-23T15:04:56.026Z,7.73
2018-04-23T15:07:26.787Z,8.80
2018-04-23T15:09:56.169Z,8.40
2018-04-23T15:12:25.228Z,11.17
2018-04-23T15:14:53.877Z,11.60
2018-04-23T15:17:22.575Z,16.70
2018-04-23T15:19:51.033Z,13.87
2018-04-23T15:22:20.286Z,22.90
2018-04-23T15:24:48.883Z,16.20
2018-04-23T15:27:17.463Z,14.50
2018-04-23T15:29:47.170Z,15.40
2018-04-23T15:32:17.820Z,25.30
2018-04-23T15:34:48.714Z,20.37
2018-04-23T15:37:17.506Z,17.20
2018-04-23T15:39:46.057Z,20.07
2018-04-23T15:42:14.780Z,21.60
2018-04-23T15:44:43.503Z,20.43
2018-04-23T15:47:12.052Z,23.70
2018-04-23T15:49:40.494Z,23.80
2018-04-23T15:52:09.229Z,25.90
2018-04-23T15:54:41.462Z,22.80
2018-04-23T15:57:15.341Z,22.60
2018-04-23T15:59:47.837Z,20.20
2018-04-23T16:02:16.323Z,21.23
2018-04-23T16:04:46.729Z,23.17
2018-04-23T16:07:16.417Z,21.67
2018-04-23T16:09:45.167Z,23.13
2018-04-23T16:12:14.718Z,21.13
2018-04-23T16:14:48.840Z,19.67
2018-04-23T16:17:18.093Z,17.77
2018-04-23T16:19:46.789Z,16.87
2018-04-23T16:22:15.485Z,18.07
2018-04-23T16:24:43.904Z,21.00
2018-04-23T16:27:12.286Z,17.53
2018-04-23T16:29:41.484Z,19.73
2018-04-23T16:32:11.008Z,17.57
2018-04-23T16:34:40.109Z,21.00
2018-04-23T16:37:08.471Z,20.30
2018-04-23T16:39:36.791Z,21.87
2018-04-23T16:42:05.933Z,19.67
2018-04-23T16:44:39.415Z,18.97
2018-04-23T16:47:03.399Z,21.53
2018-04-23T16:49:32.580Z,21.60
2018-04-23T16:52:01.100Z,21.62
2018-04-23T16:54:29.524Z,20.47
2018-04-23T16:56:57.809Z,20.40
2018-04-23T16:59:26.275Z,20.90
2018-04-23T17:01:55.182Z,25.13
2018-04-23T17:04:23.708Z,20.93
2018-04-23T17:06:52.105Z,19.37
2018-04-23T17:09:20.616Z,19.63
2018-04-23T17:11:49.016Z,21.40
2018-04-23T17:14:17.376Z,18.73
2018-04-23T17:16:45.906Z,18.13
2018-04-23T17:19:14.373Z,17.90
2018-04-23T17:21:42.889Z,17.13
2018-04-23T17:24:11.207Z,19.03
2018-04-23T17:26:39.563Z,20.67
2018-04-23T17:29:08.052Z,20.73
2018-04-23T17:31:36.535Z,23.37
2018-04-23T17:34:05.310Z,25.10
2018-04-23T17:36:33.798Z,22.63
2018-04-23T17:39:02.291Z,22.37
2018-04-23T17:41:30.714Z,23.30
2018-04-23T17:43:59.178Z,24.40
2018-04-23T17:46:27.671Z,20.53
2018-04-23T17:48:56.185Z,21.70
2018-04-23T17:51:24.792Z,22.23
2018-04-23T17:53:53.317Z,22.67
2018-04-23T17:56:22.864Z,23.90
2018-04-23T17:58:51.567Z,21.90
2018-04-23T18:01:20.012Z,23.07
2018-04-23T18:03:48.446Z,20.17
2018-04-23T18:06:16.887Z,21.90
2018-04-23T18:08:45.535Z,19.10
2018-04-23T18:11:13.986Z,20.10
2018-04-23T18:13:42.513Z,19.90
2018-04-23T18:16:11.056Z,21.27
2018-04-23T18:18:39.678Z,19.17
2018-04-23T18:21:08.332Z,20.53
2018-04-23T18:23:36.997Z,19.27
2018-04-23T18:26:05.821Z,19.87
2018-04-23T18:28:34.427Z,20.63
2018-04-23T18:31:03.252Z,19.73
2018-04-23T18:33:32.037Z,21.20
2018-04-23T18:36:00.610Z,20.50
2018-04-23T18:38:29.546Z,22.93
2018-04-23T18:40:58.573Z,21.13
2018-04-23T18:43:28.229Z,21.00
2018-04-23T18:45:57.200Z,21.80
2018-04-23T18:48:26.289Z,22.23
2018-04-23T18:50:55.199Z,23.43
2018-04-23T18:53:24.910Z,22.37
2018-04-23T18:55:53.700Z,22.03
2018-04-23T18:58:23.978Z,23.10
2018-04-23T19:00:52.390Z,25.57
2018-04-23T19:03:21.824Z,23.43
2018-04-23T19:05:50.268Z,23.70
2018-04-23T19:08:19.607Z,22.93
2018-04-23T19:10:48.036Z,23.73
2018-04-23T19:13:16.398Z,22.07
2018-04-23T19:15:44.772Z,22.13
2018-04-23T19:18:13.170Z,21.70
2018-04-23T19:20:41.523Z,24.10
2018-04-23T19:23:09.908Z,24.10
2018-04-23T19:25:38.557Z,23.17
2018-04-23T19:28:07.647Z,24.00
2018-04-23T19:30:36.263Z,23.50
2018-04-23T19:33:04.623Z,28.20
2018-04-23T19:35:33.056Z,21.90
2018-04-23T19:38:01.467Z,24.60
2018-04-23T19:40:29.869Z,29.37
2018-04-23T19:42:58.971Z,26.70
2018-04-23T19:45:27.355Z,26.50
2018-04-23T19:47:56.172Z,25.50
2018-04-23T19:50:24.585Z,25.07
2018-04-23T19:52:53.423Z,28.53
2018-04-23T19:55:21.986Z,27.33
2018-04-23T19:57:50.731Z,26.43
2018-04-23T20:00:20.068Z,25.80
2018-04-23T20:02:49.192Z,26.40
2018-04-23T20:05:18.573Z,29.03
2018-04-23T20:07:46.946Z,27.77
2018-04-23T20:10:15.324Z,29.10
2018-04-23T20:12:43.719Z,27.20
2018-04-23T20:15:12.855Z,28.50
2018-04-23T20:17:41.158Z,28.87
2018-04-23T20:20:09.836Z,29.63
2018-04-23T20:22:38.188Z,27.10
2018-04-23T20:25:06.501Z,28.60
2018-04-23T20:27:34.868Z,29.60
2018-04-23T20:30:04.308Z,29.77
2018-04-23T20:32:34.117Z,29.80
2018-04-23T20:35:02.532Z,30.60
2018-04-23T20:37:30.915Z,30.73
2018-04-23T20:39:59.214Z,27.83
2018-04-23T20:42:27.600Z,30.70
2018-04-23T20:44:55.927Z,32.00
2018-04-23T20:47:25.073Z,29.87
2018-04-23T20:49:53.465Z,32.23
2018-04-23T20:52:21.782Z,32.20
2018-04-23T20:54:50.943Z,32.00
2018-04-23T20:57:19.253Z,31.20
2018-04-23T20:59:49.164Z,33.07
2018-04-23T21:02:18.120Z,30.80
2018-04-23T21:04:47.282Z,30.37
2018-04-23T21:07:15.596Z,31.03
2018-04-23T21:09:44.697Z,32.97
2018-04-23T21:12:13.007Z,31.20
2018-04-23T21:14:41.565Z,29.07
2018-04-23T21:17:10.061Z,30.40
2018-04-23T21:19:38.338Z,31.53
2018-04-23T21:22:06.727Z,29.37
2018-04-23T21:24:35.022Z,29.60
2018-04-23T21:27:03.394Z,27.93
2018-04-23T21:29:31.952Z,27.67
2018-04-23T21:32:00.398Z,29.33
2018-04-23T21:34:28.801Z,27.67
2018-04-23T21:36:57.097Z,28.53
2018-04-23T21:39:25.396Z,28.57
2018-04-23T21:41:53.670Z,27.17
2018-04-23T21:44:22.029Z,28.33
2018-04-23T21:46:50.303Z,29.00
2018-04-23T21:49:18.612Z,27.50
2018-04-23T21:51:46.966Z,26.17
2018-04-23T21:54:15.266Z,29.27
2018-04-23T21:56:43.578Z,29.53
2018-04-23T21:59:11.858Z,24.77
2018-04-23T22:01:42.704Z,26.80
2018-04-23T22:04:11.447Z,28.27
2018-04-23T22:06:39.731Z,27.87
2018-04-23T22:09:08.053Z,26.80
2018-04-23T22:11:36.371Z,25.53
2018-04-23T22:14:05.175Z,28.60
2018-04-23T22:16:33.487Z,32.07
2018-04-23T22:19:02.546Z,28.50
2018-04-23T22:21:30.859Z,30.13
2018-04-23T22:23:59.166Z,29.80
2018-04-23T22:26:27.508Z,28.23
2018-04-23T22:28:56.583Z,27.03
2018-04-23T22:31:25.020Z,27.70
2018-04-23T22:33:53.252Z,27.10
2018-04-23T22:36:21.771Z,25.83
2018-04-23T22:38:50.095Z,29.67
2018-04-23T22:41:18.493Z,27.30
2018-04-23T22:43:46.808Z,29.43
2018-04-23T22:46:15.110Z,27.07
2018-04-23T22:48:43.384Z,30.93
2018-04-23T22:51:11.659Z,28.20
2018-04-23T22:53:39.957Z,29.27
2018-04-23T22:56:08.259Z,27.57
2018-04-23T22:58:36.565Z,30.50
2018-04-23T23:01:04.888Z,28.47
2018-04-23T23:03:33.322Z,29.00
2018-04-23T23:06:01.602Z,30.70
2018-04-23T23:08:29.901Z,29.80
2018-04-23T23:10:58.175Z,29.77
2018-04-23T23:13:26.634Z,29.10
2018-04-23T23:15:54.912Z,28.67
2018-04-23T23:18:23.191Z,28.50
2018-04-23T23:20:52.353Z,34.87
2018-04-23T23:23:20.653Z,30.80
2018-04-23T23:25:48.963Z,27.90
2018-04-23T23:28:17.615Z,30.03
2018-04-23T23:30:45.902Z,30.03
2018-04-23T23:33:14.221Z,29.80
2018-04-23T23:35:42.534Z,29.33
2018-04-23T23:38:10.810Z,30.50
2018-04-23T23:40:39.118Z,30.80
2018-04-23T23:43:08.183Z,31.33
2018-04-23T23:45:36.449Z,30.00
2018-04-23T23:48:04.761Z,30.73
2018-04-23T23:50:35.755Z,30.00
2018-04-23T23:53:04.413Z,32.23
2018-04-23T23:55:35.897Z,27.83
2018-04-23T23:58:05.110Z,28.13
